KHEI

Hettinger Municipal Airport

Hettinger, North Dakota, USA
METAR KHEI 211353Z AUTO 15009KT 10SM CLR 13/05 A3002 RMK AO2 SLP163 T01280050
Observed Flight Rules
May-21 @ 13:53 UTC (an hour ago) Visual Flight Rules
Wind Visibility Clouds
150° at 9 knots 10 miles
  • Clear skies
Temperatures Readings
Current 13°C / 55°F
Dewpoint 5°C / 41°F
Humidity 59%
Altimeter 30.02" Hg
Pressure 1016.3 hPa
Elevation 828
METAR KHEI 211353Z AUTO 15009KT 10SM CLR 13/05 A3002 RMK AO2 SLP163 T01280050
Observed Flight Rules
May-21 @ 13:53 UTC
(an hour ago)
VFR
Wind Visibility
150° at 9 knots 10 miles
Clouds
  • Clear skies
Temperature Dewpoint
13°C / 55°F 5°C / 41°F
Humidity Altimeter Pressure
59% 30.02" Hg 1016.3 hPa